sensor_id;sensor_type;location;lat;lon;timestamp;P1;durP1;ratioP1;P2;durP2;ratioP2
30000;SDS011;16845;48.670;9.000;2023-05-10T00:01:18;4.13;;;1.85;;
30000;SDS011;16845;48.670;9.000;2023-05-10T00:03:44;3.22;;;1.60;;
30000;SDS011;16845;48.670;9.000;2023-05-10T00:06:11;1.92;;;1.63;;
30000;SDS011;16845;48.670;9.000;2023-05-10T00:08:37;2.65;;;1.40;;
30000;SDS011;16845;48.670;9.000;2023-05-10T00:11:04;7.00;;;1.70;;
30000;SDS011;16845;48.670;9.000;2023-05-10T00:13:30;6.22;;;1.60;;
30000;SDS011;16845;48.670;9.000;2023-05-10T00:15:58;6.43;;;1.40;;
30000;SDS011;16845;48.670;9.000;2023-05-10T00:18:25;5.03;;;1.45;;
30000;SDS011;16845;48.670;9.000;2023-05-10T00:20:51;1.50;;;1.40;;
30000;SDS011;16845;48.670;9.000;2023-05-10T00:23:18;2.27;;;1.30;;
30000;SDS011;16845;48.670;9.000;2023-05-10T00:25:45;3.90;;;1.10;;
30000;SDS011;16845;48.670;9.000;2023-05-10T00:28:11;1.05;;;1.05;;
30000;SDS011;16845;48.670;9.000;2023-05-10T00:30:37;1.48;;;1.17;;
30000;SDS011;16845;48.670;9.000;2023-05-10T00:33:05;2.67;;;1.00;;
30000;SDS011;16845;48.670;9.000;2023-05-10T00:35:32;0.88;;;0.88;;
30000;SDS011;16845;48.670;9.000;2023-05-10T00:37:58;7.25;;;1.25;;
30000;SDS011;16845;48.670;9.000;2023-05-10T00:40:25;2.75;;;0.80;;
30000;SDS011;16845;48.670;9.000;2023-05-10T00:42:51;4.38;;;1.00;;
30000;SDS011;16845;48.670;9.000;2023-05-10T00:45:18;0.88;;;0.85;;
30000;SDS011;16845;48.670;9.000;2023-05-10T00:47:45;1.97;;;1.37;;
30000;SDS011;16845;48.670;9.000;2023-05-10T00:50:13;2.13;;;1.00;;
30000;SDS011;16845;48.670;9.000;2023-05-10T00:52:40;3.22;;;0.80;;
30000;SDS011;16845;48.670;9.000;2023-05-10T00:55:07;2.38;;;0.80;;
30000;SDS011;16845;48.670;9.000;2023-05-10T00:57:36;1.27;;;1.17;;
30000;SDS011;16845;48.670;9.000;2023-05-10T01:00:02;4.57;;;1.00;;
30000;SDS011;16845;48.670;9.000;2023-05-10T01:04:56;2.72;;;0.57;;
30000;SDS011;16845;48.670;9.000;2023-05-10T01:07:24;9.82;;;0.82;;
30000;SDS011;16845;48.670;9.000;2023-05-10T01:09:50;0.75;;;0.40;;
30000;SDS011;16845;48.670;9.000;2023-05-10T01:12:17;0.88;;;0.50;;
30000;SDS011;16845;48.670;9.000;2023-05-10T01:14:43;1.95;;;0.50;;
30000;SDS011;16845;48.670;9.000;2023-05-10T01:17:10;0.77;;;0.47;;
30000;SDS011;16845;48.670;9.000;2023-05-10T01:19:38;10.02;;;0.80;;
30000;SDS011;16845;48.670;9.000;2023-05-10T01:22:09;4.17;;;0.47;;
30000;SDS011;16845;48.670;9.000;2023-05-10T01:24:58;0.90;;;0.50;;
30000;SDS011;16845;48.670;9.000;2023-05-10T01:27:47;2.38;;;0.40;;
30000;SDS011;16845;48.670;9.000;2023-05-10T01:36:03;9.05;;;0.60;;
30000;SDS011;16845;48.670;9.000;2023-05-10T01:38:33;0.40;;;0.40;;
30000;SDS011;16845;48.670;9.000;2023-05-10T01:41:09;1.35;;;0.60;;
30000;SDS011;16845;48.670;9.000;2023-05-10T01:43:45;6.22;;;0.47;;
30000;SDS011;16845;48.670;9.000;2023-05-10T01:46:20;0.50;;;0.47;;
30000;SDS011;16845;48.670;9.000;2023-05-10T01:48:54;1.45;;;0.60;;
30000;SDS011;16845;48.670;9.000;2023-05-10T01:51:26;0.63;;;0.50;;
30000;SDS011;16845;48.670;9.000;2023-05-10T01:53:59;0.45;;;0.40;;
30000;SDS011;16845;48.670;9.000;2023-05-10T01:56:28;1.95;;;1.17;;
30000;SDS011;16845;48.670;9.000;2023-05-10T01:58:57;1.58;;;0.40;;
30000;SDS011;16845;48.670;9.000;2023-05-10T02:01:26;1.40;;;0.50;;
30000;SDS011;16845;48.670;9.000;2023-05-10T02:03:53;0.93;;;0.63;;
30000;SDS011;16845;48.670;9.000;2023-05-10T02:06:21;0.77;;;0.60;;
30000;SDS011;16845;48.670;9.000;2023-05-10T02:08:51;3.38;;;0.70;;
30000;SDS011;16845;48.670;9.000;2023-05-10T02:11:18;3.97;;;0.70;;
30000;SDS011;16845;48.670;9.000;2023-05-10T02:16:13;0.50;;;0.50;;
30000;SDS011;16845;48.670;9.000;2023-05-10T02:18:42;0.73;;;0.52;;
30000;SDS011;16845;48.670;9.000;2023-05-10T02:21:09;0.88;;;0.60;;
30000;SDS011;16845;48.670;9.000;2023-05-10T02:23:36;1.20;;;0.60;;
30000;SDS011;16845;48.670;9.000;2023-05-10T02:26:05;5.25;;;0.77;;
30000;SDS011;16845;48.670;9.000;2023-05-10T02:28:32;13.45;;;1.60;;
30000;SDS011;16845;48.670;9.000;2023-05-10T02:31:01;3.35;;;0.73;;
30000;SDS011;16845;48.670;9.000;2023-05-10T02:33:28;3.65;;;0.98;;
30000;SDS011;16845;48.670;9.000;2023-05-10T02:35:57;1.98;;;1.05;;
30000;SDS011;16845;48.670;9.000;2023-05-10T02:38:24;3.92;;;0.90;;
30000;SDS011;16845;48.670;9.000;2023-05-10T02:43:20;2.10;;;0.80;;
30000;SDS011;16845;48.670;9.000;2023-05-10T02:45:49;0.80;;;0.70;;
30000;SDS011;16845;48.670;9.000;2023-05-10T02:48:15;4.33;;;1.10;;
30000;SDS011;16845;48.670;9.000;2023-05-10T02:50:43;0.80;;;0.80;;
30000;SDS011;16845;48.670;9.000;2023-05-10T02:53:11;1.15;;;0.80;;
30000;SDS011;16845;48.670;9.000;2023-05-10T02:55:42;5.28;;;0.75;;
30000;SDS011;16845;48.670;9.000;2023-05-10T02:58:14;0.60;;;0.60;;
30000;SDS011;16845;48.670;9.000;2023-05-10T03:00:42;1.55;;;0.90;;
30000;SDS011;16845;48.670;9.000;2023-05-10T03:03:09;0.70;;;0.70;;
30000;SDS011;16845;48.670;9.000;2023-05-10T03:05:35;3.38;;;0.90;;
30000;SDS011;16845;48.670;9.000;2023-05-10T03:08:02;3.72;;;0.90;;
30000;SDS011;16845;48.670;9.000;2023-05-10T03:10:29;1.93;;;1.17;;
30000;SDS011;16845;48.670;9.000;2023-05-10T03:13:09;3.78;;;1.40;;
30000;SDS011;16845;48.670;9.000;2023-05-10T03:15:45;2.28;;;0.90;;
30000;SDS011;16845;48.670;9.000;2023-05-10T03:18:20;3.60;;;1.40;;
30000;SDS011;16845;48.670;9.000;2023-05-10T03:20:49;1.38;;;0.90;;
30000;SDS011;16845;48.670;9.000;2023-05-10T03:23:21;1.33;;;1.05;;
30000;SDS011;16845;48.670;9.000;2023-05-10T03:25:50;1.23;;;0.93;;
30000;SDS011;16845;48.670;9.000;2023-05-10T03:30:47;5.63;;;1.23;;
30000;SDS011;16845;48.670;9.000;2023-05-10T03:33:13;6.63;;;1.20;;
30000;SDS011;16845;48.670;9.000;2023-05-10T03:35:40;1.25;;;1.17;;
30000;SDS011;16845;48.670;9.000;2023-05-10T03:38:06;1.88;;;1.45;;
30000;SDS011;16845;48.670;9.000;2023-05-10T03:40:33;5.90;;;1.08;;
30000;SDS011;16845;48.670;9.000;2023-05-10T03:42:59;4.00;;;1.27;;
30000;SDS011;16845;48.670;9.000;2023-05-10T03:45:26;2.08;;;1.70;;
30000;SDS011;16845;48.670;9.000;2023-05-10T03:47:54;2.50;;;1.80;;
30000;SDS011;16845;48.670;9.000;2023-05-10T03:50:20;3.72;;;1.55;;
30000;SDS011;16845;48.670;9.000;2023-05-10T03:52:47;3.45;;;1.35;;
30000;SDS011;16845;48.670;9.000;2023-05-10T03:55:13;3.70;;;1.50;;
30000;SDS011;16845;48.670;9.000;2023-05-10T03:57:40;2.25;;;1.52;;
30000;SDS011;16845;48.670;9.000;2023-05-10T04:00:07;5.00;;;1.92;;
30000;SDS011;16845;48.670;9.000;2023-05-10T04:02:34;7.07;;;2.15;;
30000;SDS011;16845;48.670;9.000;2023-05-10T04:05:02;1.97;;;1.77;;
30000;SDS011;16845;48.670;9.000;2023-05-10T04:07:29;4.57;;;1.83;;
30000;SDS011;16845;48.670;9.000;2023-05-10T04:09:55;2.20;;;1.23;;
30000;SDS011;16845;48.670;9.000;2023-05-10T04:12:22;2.50;;;1.45;;
30000;SDS011;16845;48.670;9.000;2023-05-10T04:14:48;4.15;;;1.63;;
30000;SDS011;16845;48.670;9.000;2023-05-10T04:17:15;7.72;;;1.55;;
30000;SDS011;16845;48.670;9.000;2023-05-10T04:19:41;5.63;;;1.77;;
30000;SDS011;16845;48.670;9.000;2023-05-10T04:22:09;2.55;;;1.52;;
30000;SDS011;16845;48.670;9.000;2023-05-10T04:24:36;1.65;;;1.55;;
30000;SDS011;16845;48.670;9.000;2023-05-10T04:27:02;2.63;;;1.77;;
30000;SDS011;16845;48.670;9.000;2023-05-10T04:29:29;2.15;;;1.50;;
30000;SDS011;16845;48.670;9.000;2023-05-10T04:31:55;2.92;;;1.50;;
30000;SDS011;16845;48.670;9.000;2023-05-10T04:34:21;4.80;;;1.48;;
30000;SDS011;16845;48.670;9.000;2023-05-10T04:36:48;4.47;;;1.75;;
30000;SDS011;16845;48.670;9.000;2023-05-10T04:41:43;2.80;;;1.77;;
30000;SDS011;16845;48.670;9.000;2023-05-10T04:44:09;2.58;;;1.67;;
30000;SDS011;16845;48.670;9.000;2023-05-10T04:46:36;2.25;;;1.60;;
30000;SDS011;16845;48.670;9.000;2023-05-10T04:49:02;5.05;;;1.80;;
30000;SDS011;16845;48.670;9.000;2023-05-10T04:51:29;2.60;;;2.05;;
30000;SDS011;16845;48.670;9.000;2023-05-10T04:53:55;8.88;;;1.88;;
30000;SDS011;16845;48.670;9.000;2023-05-10T04:56:33;1.70;;;1.50;;
30000;SDS011;16845;48.670;9.000;2023-05-10T04:58:59;4.50;;;1.42;;
30000;SDS011;16845;48.670;9.000;2023-05-10T05:01:26;1.90;;;1.57;;
30000;SDS011;16845;48.670;9.000;2023-05-10T05:03:53;5.87;;;1.33;;
30000;SDS011;16845;48.670;9.000;2023-05-10T05:06:20;4.45;;;1.58;;
30000;SDS011;16845;48.670;9.000;2023-05-10T05:08:46;4.68;;;1.70;;
30000;SDS011;16845;48.670;9.000;2023-05-10T05:11:13;3.28;;;1.58;;
30000;SDS011;16845;48.670;9.000;2023-05-10T05:13:40;7.57;;;1.60;;
30000;SDS011;16845;48.670;9.000;2023-05-10T05:16:07;1.50;;;1.40;;
30000;SDS011;16845;48.670;9.000;2023-05-10T05:18:33;4.20;;;1.27;;
30000;SDS011;16845;48.670;9.000;2023-05-10T05:21:00;2.70;;;1.60;;
30000;SDS011;16845;48.670;9.000;2023-05-10T05:23:26;6.38;;;1.50;;
30000;SDS011;16845;48.670;9.000;2023-05-10T05:25:53;2.20;;;1.40;;
30000;SDS011;16845;48.670;9.000;2023-05-10T05:28:19;2.03;;;1.60;;
30000;SDS011;16845;48.670;9.000;2023-05-10T05:30:48;2.42;;;1.65;;
30000;SDS011;16845;48.670;9.000;2023-05-10T05:33:14;3.50;;;1.77;;
30000;SDS011;16845;48.670;9.000;2023-05-10T05:35:41;4.53;;;1.60;;
30000;SDS011;16845;48.670;9.000;2023-05-10T05:38:07;5.43;;;1.83;;
30000;SDS011;16845;48.670;9.000;2023-05-10T05:40:34;3.53;;;1.60;;
30000;SDS011;16845;48.670;9.000;2023-05-10T05:43:00;1.67;;;1.50;;
30000;SDS011;16845;48.670;9.000;2023-05-10T05:45:26;1.95;;;1.50;;
30000;SDS011;16845;48.670;9.000;2023-05-10T05:47:54;2.85;;;1.33;;
30000;SDS011;16845;48.670;9.000;2023-05-10T05:50:21;2.03;;;1.50;;
30000;SDS011;16845;48.670;9.000;2023-05-10T05:52:47;2.70;;;1.50;;
30000;SDS011;16845;48.670;9.000;2023-05-10T05:55:14;3.58;;;1.20;;
30000;SDS011;16845;48.670;9.000;2023-05-10T05:57:41;3.90;;;1.58;;
30000;SDS011;16845;48.670;9.000;2023-05-10T06:00:07;1.88;;;1.52;;
30000;SDS011;16845;48.670;9.000;2023-05-10T06:02:34;2.20;;;1.60;;
30000;SDS011;16845;48.670;9.000;2023-05-10T06:05:02;2.40;;;1.90;;
30000;SDS011;16845;48.670;9.000;2023-05-10T06:07:29;3.22;;;1.85;;
30000;SDS011;16845;48.670;9.000;2023-05-10T06:09:55;3.42;;;1.48;;
30000;SDS011;16845;48.670;9.000;2023-05-10T06:12:22;2.78;;;1.58;;
30000;SDS011;16845;48.670;9.000;2023-05-10T06:14:48;9.25;;;1.38;;
30000;SDS011;16845;48.670;9.000;2023-05-10T06:17:15;2.55;;;1.30;;
30000;SDS011;16845;48.670;9.000;2023-05-10T06:19:41;6.22;;;1.27;;
30000;SDS011;16845;48.670;9.000;2023-05-10T06:22:09;8.57;;;1.80;;
30000;SDS011;16845;48.670;9.000;2023-05-10T06:24:36;5.60;;;2.00;;
30000;SDS011;16845;48.670;9.000;2023-05-10T06:27:02;3.40;;;1.40;;
30000;SDS011;16845;48.670;9.000;2023-05-10T06:29:29;2.38;;;1.35;;
30000;SDS011;16845;48.670;9.000;2023-05-10T06:31:55;2.20;;;1.40;;
30000;SDS011;16845;48.670;9.000;2023-05-10T06:34:22;2.15;;;1.35;;
30000;SDS011;16845;48.670;9.000;2023-05-10T06:36:48;4.07;;;1.70;;
30000;SDS011;16845;48.670;9.000;2023-05-10T06:39:16;4.13;;;1.50;;
30000;SDS011;16845;48.670;9.000;2023-05-10T06:41:43;2.42;;;1.55;;
30000;SDS011;16845;48.670;9.000;2023-05-10T06:44:09;7.87;;;1.90;;
30000;SDS011;16845;48.670;9.000;2023-05-10T06:46:36;4.13;;;1.60;;
30000;SDS011;16845;48.670;9.000;2023-05-10T06:49:02;2.57;;;1.27;;
30000;SDS011;16845;48.670;9.000;2023-05-10T06:51:29;4.93;;;1.65;;
30000;SDS011;16845;48.670;9.000;2023-05-10T06:53:55;5.20;;;1.40;;
30000;SDS011;16845;48.670;9.000;2023-05-10T06:56:23;3.20;;;1.17;;
30000;SDS011;16845;48.670;9.000;2023-05-10T06:58:50;1.88;;;1.55;;
30000;SDS011;16845;48.670;9.000;2023-05-10T07:01:16;2.15;;;1.40;;
30000;SDS011;16845;48.670;9.000;2023-05-10T07:03:43;5.47;;;1.70;;
30000;SDS011;16845;48.670;9.000;2023-05-10T07:06:09;1.67;;;1.58;;
30000;SDS011;16845;48.670;9.000;2023-05-10T07:08:56;2.55;;;1.35;;
30000;SDS011;16845;48.670;9.000;2023-05-10T07:11:23;6.50;;;1.90;;
30000;SDS011;16845;48.670;9.000;2023-05-10T07:13:50;4.63;;;1.33;;
30000;SDS011;16845;48.670;9.000;2023-05-10T07:16:16;1.67;;;1.45;;
30000;SDS011;16845;48.670;9.000;2023-05-10T07:18:43;5.18;;;1.30;;
30000;SDS011;16845;48.670;9.000;2023-05-10T07:21:09;1.67;;;1.50;;
30000;SDS011;16845;48.670;9.000;2023-05-10T07:23:36;1.88;;;1.05;;
30000;SDS011;16845;48.670;9.000;2023-05-10T07:26:02;5.03;;;1.30;;
30000;SDS011;16845;48.670;9.000;2023-05-10T07:28:30;5.03;;;1.43;;
30000;SDS011;16845;48.670;9.000;2023-05-10T07:30:57;3.95;;;1.30;;
30000;SDS011;16845;48.670;9.000;2023-05-10T07:36:20;5.28;;;1.30;;
30000;SDS011;16845;48.670;9.000;2023-05-10T07:38:47;1.33;;;1.23;;
30000;SDS011;16845;48.670;9.000;2023-05-10T07:41:13;6.20;;;1.40;;
30000;SDS011;16845;48.670;9.000;2023-05-10T07:43:41;3.05;;;1.17;;
30000;SDS011;16845;48.670;9.000;2023-05-10T07:46:08;6.18;;;1.05;;
30000;SDS011;16845;48.670;9.000;2023-05-10T07:48:34;4.20;;;0.95;;
30000;SDS011;16845;48.670;9.000;2023-05-10T07:51:01;0.93;;;0.93;;
30000;SDS011;16845;48.670;9.000;2023-05-10T07:53:27;0.60;;;0.50;;
30000;SDS011;16845;48.670;9.000;2023-05-10T07:55:54;1.23;;;0.82;;
30000;SDS011;16845;48.670;9.000;2023-05-10T07:58:23;1.00;;;0.80;;
30000;SDS011;16845;48.670;9.000;2023-05-10T08:00:51;1.85;;;0.80;;
30000;SDS011;16845;48.670;9.000;2023-05-10T08:03:18;0.68;;;0.68;;
30000;SDS011;16845;48.670;9.000;2023-05-10T08:05:44;3.58;;;0.90;;
30000;SDS011;16845;48.670;9.000;2023-05-10T08:08:11;0.60;;;0.60;;
30000;SDS011;16845;48.670;9.000;2023-05-10T08:10:38;0.60;;;0.60;;
30000;SDS011;16845;48.670;9.000;2023-05-10T08:13:04;3.60;;;0.70;;
30000;SDS011;16845;48.670;9.000;2023-05-10T08:15:30;1.60;;;0.77;;
30000;SDS011;16845;48.670;9.000;2023-05-10T08:17:58;2.85;;;0.80;;
30000;SDS011;16845;48.670;9.000;2023-05-10T08:20:25;2.25;;;0.70;;
30000;SDS011;16845;48.670;9.000;2023-05-10T08:22:51;0.70;;;0.47;;
30000;SDS011;16845;48.670;9.000;2023-05-10T08:25:18;1.23;;;0.50;;
30000;SDS011;16845;48.670;9.000;2023-05-10T08:27:45;2.35;;;0.68;;
30000;SDS011;16845;48.670;9.000;2023-05-10T08:30:11;2.63;;;0.75;;
30000;SDS011;16845;48.670;9.000;2023-05-10T08:32:38;6.30;;;0.85;;
30000;SDS011;16845;48.670;9.000;2023-05-10T08:35:06;3.78;;;0.75;;
30000;SDS011;16845;48.670;9.000;2023-05-10T08:37:33;0.77;;;0.50;;
30000;SDS011;16845;48.670;9.000;2023-05-10T08:39:59;10.52;;;1.20;;
30000;SDS011;16845;48.670;9.000;2023-05-10T08:42:27;3.13;;;0.70;;
30000;SDS011;16845;48.670;9.000;2023-05-10T08:44:56;0.50;;;0.50;;
30000;SDS011;16845;48.670;9.000;2023-05-10T08:49:51;1.75;;;0.88;;
30000;SDS011;16845;48.670;9.000;2023-05-10T08:52:19;0.63;;;0.50;;
30000;SDS011;16845;48.670;9.000;2023-05-10T08:54:48;2.67;;;0.80;;
30000;SDS011;16845;48.670;9.000;2023-05-10T08:57:15;1.52;;;0.50;;
30000;SDS011;16845;48.670;9.000;2023-05-10T08:59:41;3.20;;;0.68;;
30000;SDS011;16845;48.670;9.000;2023-05-10T09:02:08;2.05;;;0.63;;
30000;SDS011;16845;48.670;9.000;2023-05-10T09:04:36;8.43;;;0.60;;
30000;SDS011;16845;48.670;9.000;2023-05-10T09:07:03;1.63;;;0.73;;
30000;SDS011;16845;48.670;9.000;2023-05-10T09:09:30;4.22;;;0.45;;
30000;SDS011;16845;48.670;9.000;2023-05-10T09:11:57;2.83;;;0.40;;
30000;SDS011;16845;48.670;9.000;2023-05-10T09:14:24;1.08;;;0.50;;
30000;SDS011;16845;48.670;9.000;2023-05-10T09:16:51;1.27;;;0.50;;
30000;SDS011;16845;48.670;9.000;2023-05-10T09:19:18;1.65;;;0.57;;
30000;SDS011;16845;48.670;9.000;2023-05-10T09:21:44;1.88;;;0.45;;
30000;SDS011;16845;48.670;9.000;2023-05-10T09:24:11;2.08;;;0.45;;
30000;SDS011;16845;48.670;9.000;2023-05-10T09:26:44;1.85;;;0.60;;
30000;SDS011;16845;48.670;9.000;2023-05-10T09:29:12;0.68;;;0.60;;
30000;SDS011;16845;48.670;9.000;2023-05-10T09:31:43;2.22;;;0.40;;
30000;SDS011;16845;48.670;9.000;2023-05-10T09:34:11;3.50;;;0.60;;
30000;SDS011;16845;48.670;9.000;2023-05-10T09:36:48;2.67;;;1.63;;
30000;SDS011;16845;48.670;9.000;2023-05-10T09:39:16;3.88;;;0.43;;
30000;SDS011;16845;48.670;9.000;2023-05-10T09:41:44;4.50;;;0.57;;
30000;SDS011;16845;48.670;9.000;2023-05-10T09:44:11;1.38;;;0.40;;
30000;SDS011;16845;48.670;9.000;2023-05-10T09:46:37;1.50;;;0.53;;
30000;SDS011;16845;48.670;9.000;2023-05-10T09:49:04;0.98;;;0.47;;
30000;SDS011;16845;48.670;9.000;2023-05-10T09:51:31;1.20;;;0.60;;
30000;SDS011;16845;48.670;9.000;2023-05-10T09:54:09;0.40;;;0.40;;
30000;SDS011;16845;48.670;9.000;2023-05-10T09:56:37;3.20;;;0.40;;
30000;SDS011;16845;48.670;9.000;2023-05-10T09:59:05;0.70;;;0.40;;
30000;SDS011;16845;48.670;9.000;2023-05-10T10:01:32;0.63;;;0.40;;
30000;SDS011;16845;48.670;9.000;2023-05-10T10:04:01;1.95;;;0.50;;
30000;SDS011;16845;48.670;9.000;2023-05-10T10:06:29;0.40;;;0.40;;
30000;SDS011;16845;48.670;9.000;2023-05-10T10:09:01;0.55;;;0.40;;
30000;SDS011;16845;48.670;9.000;2023-05-10T10:11:28;3.88;;;0.68;;
30000;SDS011;16845;48.670;9.000;2023-05-10T10:13:54;2.60;;;0.32;;
30000;SDS011;16845;48.670;9.000;2023-05-10T10:16:23;3.10;;;0.73;;
30000;SDS011;16845;48.670;9.000;2023-05-10T10:18:50;1.48;;;0.45;;
30000;SDS011;16845;48.670;9.000;2023-05-10T10:21:17;0.30;;;0.27;;
30000;SDS011;16845;48.670;9.000;2023-05-10T10:23:44;1.95;;;0.40;;
30000;SDS011;16845;48.670;9.000;2023-05-10T10:26:11;0.75;;;0.35;;
30000;SDS011;16845;48.670;9.000;2023-05-10T10:28:39;3.90;;;0.40;;
30000;SDS011;16845;48.670;9.000;2023-05-10T10:31:16;4.22;;;0.52;;
30000;SDS011;16845;48.670;9.000;2023-05-10T10:33:55;3.30;;;0.30;;
30000;SDS011;16845;48.670;9.000;2023-05-10T10:36:25;0.75;;;0.30;;
30000;SDS011;16845;48.670;9.000;2023-05-10T10:38:58;0.57;;;0.30;;
30000;SDS011;16845;48.670;9.000;2023-05-10T10:41:27;3.95;;;0.45;;
30000;SDS011;16845;48.670;9.000;2023-05-10T10:49:50;5.18;;;0.60;;
30000;SDS011;16845;48.670;9.000;2023-05-10T10:52:21;9.82;;;0.77;;
30000;SDS011;16845;48.670;9.000;2023-05-10T10:54:49;11.85;;;0.93;;
30000;SDS011;16845;48.670;9.000;2023-05-10T10:57:17;10.05;;;0.70;;
30000;SDS011;16845;48.670;9.000;2023-05-10T10:59:45;4.57;;;0.60;;
30000;SDS011;16845;48.670;9.000;2023-05-10T11:02:17;1.42;;;0.60;;
30000;SDS011;16845;48.670;9.000;2023-05-10T11:05:00;4.53;;;0.60;;
30000;SDS011;16845;48.670;9.000;2023-05-10T11:07:51;1.02;;;0.73;;
30000;SDS011;16845;48.670;9.000;2023-05-10T11:10:19;1.25;;;0.52;;
30000;SDS011;16845;48.670;9.000;2023-05-10T11:12:50;2.67;;;0.57;;
30000;SDS011;16845;48.670;9.000;2023-05-10T11:15:17;2.78;;;0.50;;
30000;SDS011;16845;48.670;9.000;2023-05-10T11:17:45;1.13;;;0.43;;
30000;SDS011;16845;48.670;9.000;2023-05-10T11:20:14;3.43;;;0.77;;
30000;SDS011;16845;48.670;9.000;2023-05-10T11:22:50;2.10;;;0.70;;
30000;SDS011;16845;48.670;9.000;2023-05-10T11:25:17;5.30;;;0.80;;
30000;SDS011;16845;48.670;9.000;2023-05-10T11:27:44;7.03;;;0.60;;
30000;SDS011;16845;48.670;9.000;2023-05-10T11:30:13;2.67;;;0.60;;
30000;SDS011;16845;48.670;9.000;2023-05-10T11:32:41;5.55;;;1.10;;
30000;SDS011;16845;48.670;9.000;2023-05-10T11:35:08;0.75;;;0.60;;
30000;SDS011;16845;48.670;9.000;2023-05-10T11:37:36;1.80;;;1.48;;
30000;SDS011;16845;48.670;9.000;2023-05-10T11:40:05;0.85;;;0.40;;
30000;SDS011;16845;48.670;9.000;2023-05-10T11:44:58;2.20;;;0.38;;
30000;SDS011;16845;48.670;9.000;2023-05-10T11:47:26;4.55;;;0.60;;
30000;SDS011;16845;48.670;9.000;2023-05-10T11:49:53;2.97;;;2.03;;
30000;SDS011;16845;48.670;9.000;2023-05-10T11:52:19;4.55;;;0.80;;
30000;SDS011;16845;48.670;9.000;2023-05-10T11:54:51;3.13;;;0.85;;
30000;SDS011;16845;48.670;9.000;2023-05-10T11:57:18;5.65;;;0.70;;
30000;SDS011;16845;48.670;9.000;2023-05-10T11:59:45;0.77;;;0.52;;
30000;SDS011;16845;48.670;9.000;2023-05-10T12:02:12;3.40;;;0.63;;
30000;SDS011;16845;48.670;9.000;2023-05-10T12:04:39;2.00;;;0.95;;
30000;SDS011;16845;48.670;9.000;2023-05-10T12:07:06;4.82;;;0.57;;
30000;SDS011;16845;48.670;9.000;2023-05-10T12:09:32;6.57;;;2.22;;
30000;SDS011;16845;48.670;9.000;2023-05-10T12:12:10;1.10;;;0.88;;
30000;SDS011;16845;48.670;9.000;2023-05-10T12:14:42;0.80;;;0.73;;
30000;SDS011;16845;48.670;9.000;2023-05-10T12:17:11;1.70;;;0.85;;
30000;SDS011;16845;48.670;9.000;2023-05-10T12:19:38;5.40;;;0.90;;
30000;SDS011;16845;48.670;9.000;2023-05-10T12:22:04;8.57;;;1.17;;
30000;SDS011;16845;48.670;9.000;2023-05-10T12:24:33;2.20;;;0.90;;
30000;SDS011;16845;48.670;9.000;2023-05-10T12:27:03;2.83;;;1.17;;
30000;SDS011;16845;48.670;9.000;2023-05-10T12:29:32;7.22;;;1.17;;
30000;SDS011;16845;48.670;9.000;2023-05-10T12:31:58;1.85;;;0.50;;
30000;SDS011;16845;48.670;9.000;2023-05-10T12:34:26;3.42;;;0.90;;
30000;SDS011;16845;48.670;9.000;2023-05-10T12:36:53;5.22;;;1.00;;
30000;SDS011;16845;48.670;9.000;2023-05-10T12:39:20;4.47;;;0.93;;
30000;SDS011;16845;48.670;9.000;2023-05-10T12:41:47;3.40;;;0.80;;
30000;SDS011;16845;48.670;9.000;2023-05-10T12:44:14;1.08;;;0.80;;
30000;SDS011;16845;48.670;9.000;2023-05-10T12:46:42;3.22;;;0.80;;
30000;SDS011;16845;48.670;9.000;2023-05-10T12:49:08;2.28;;;1.02;;
30000;SDS011;16845;48.670;9.000;2023-05-10T12:51:35;2.85;;;0.93;;
30000;SDS011;16845;48.670;9.000;2023-05-10T12:54:02;8.13;;;1.27;;
30000;SDS011;16845;48.670;9.000;2023-05-10T12:56:29;2.22;;;0.70;;
30000;SDS011;16845;48.670;9.000;2023-05-10T12:58:55;3.08;;;1.00;;
30000;SDS011;16845;48.670;9.000;2023-05-10T13:01:22;4.38;;;1.00;;
30000;SDS011;16845;48.670;9.000;2023-05-10T13:03:50;4.77;;;1.00;;
30000;SDS011;16845;48.670;9.000;2023-05-10T13:06:16;2.33;;;1.02;;
30000;SDS011;16845;48.670;9.000;2023-05-10T13:08:42;4.43;;;1.00;;
30000;SDS011;16845;48.670;9.000;2023-05-10T13:11:09;4.63;;;1.08;;
30000;SDS011;16845;48.670;9.000;2023-05-10T13:13:35;3.60;;;0.80;;
30000;SDS011;16845;48.670;9.000;2023-05-10T13:16:02;2.65;;;1.10;;
30000;SDS011;16845;48.670;9.000;2023-05-10T13:18:29;2.30;;;0.80;;
30000;SDS011;16845;48.670;9.000;2023-05-10T13:20:57;3.03;;;0.93;;
30000;SDS011;16845;48.670;9.000;2023-05-10T13:23:23;1.80;;;0.88;;
30000;SDS011;16845;48.670;9.000;2023-05-10T13:25:49;6.57;;;0.95;;
30000;SDS011;16845;48.670;9.000;2023-05-10T13:28:16;2.90;;;0.93;;
30000;SDS011;16845;48.670;9.000;2023-05-10T13:30:42;9.07;;;0.77;;
30000;SDS011;16845;48.670;9.000;2023-05-10T13:33:09;4.32;;;1.00;;
30000;SDS011;16845;48.670;9.000;2023-05-10T13:35:35;4.15;;;0.60;;
30000;SDS011;16845;48.670;9.000;2023-05-10T13:38:03;1.17;;;0.90;;
30000;SDS011;16845;48.670;9.000;2023-05-10T13:40:30;3.20;;;0.95;;
30000;SDS011;16845;48.670;9.000;2023-05-10T13:42:56;4.30;;;1.00;;
30000;SDS011;16845;48.670;9.000;2023-05-10T13:45:23;3.92;;;1.08;;
30000;SDS011;16845;48.670;9.000;2023-05-10T13:47:49;3.53;;;0.85;;
30000;SDS011;16845;48.670;9.000;2023-05-10T13:50:18;2.70;;;0.70;;
30000;SDS011;16845;48.670;9.000;2023-05-10T13:52:44;3.83;;;0.68;;
30000;SDS011;16845;48.670;9.000;2023-05-10T13:55:12;6.45;;;0.98;;
30000;SDS011;16845;48.670;9.000;2023-05-10T13:57:39;2.15;;;0.70;;
30000;SDS011;16845;48.670;9.000;2023-05-10T14:00:06;3.88;;;0.85;;
30000;SDS011;16845;48.670;9.000;2023-05-10T14:02:33;1.95;;;0.77;;
30000;SDS011;16845;48.670;9.000;2023-05-10T14:05:00;3.65;;;0.98;;
30000;SDS011;16845;48.670;9.000;2023-05-10T14:07:26;4.18;;;0.98;;
30000;SDS011;16845;48.670;9.000;2023-05-10T14:09:53;6.63;;;1.90;;
30000;SDS011;16845;48.670;9.000;2023-05-10T14:12:21;3.90;;;0.85;;
30000;SDS011;16845;48.670;9.000;2023-05-10T14:14:47;2.05;;;0.80;;
30000;SDS011;16845;48.670;9.000;2023-05-10T14:17:13;3.90;;;0.73;;
30000;SDS011;16845;48.670;9.000;2023-05-10T14:19:40;3.40;;;0.95;;
30000;SDS011;16845;48.670;9.000;2023-05-10T14:22:06;1.27;;;0.60;;
30000;SDS011;16845;48.670;9.000;2023-05-10T14:24:33;3.03;;;0.85;;
30000;SDS011;16845;48.670;9.000;2023-05-10T14:26:59;2.63;;;0.80;;
30000;SDS011;16845;48.670;9.000;2023-05-10T14:29:27;1.85;;;0.77;;
30000;SDS011;16845;48.670;9.000;2023-05-10T14:31:54;4.00;;;1.75;;
30000;SDS011;16845;48.670;9.000;2023-05-10T14:34:20;2.00;;;0.90;;
30000;SDS011;16845;48.670;9.000;2023-05-10T14:36:46;1.55;;;0.60;;
30000;SDS011;16845;48.670;9.000;2023-05-10T14:39:13;3.10;;;1.00;;
30000;SDS011;16845;48.670;9.000;2023-05-10T14:41:39;1.63;;;0.82;;
30000;SDS011;16845;48.670;9.000;2023-05-10T14:44:09;2.72;;;0.93;;
30000;SDS011;16845;48.670;9.000;2023-05-10T14:46:36;3.17;;;0.88;;
30000;SDS011;16845;48.670;9.000;2023-05-10T14:49:03;1.80;;;0.93;;
30000;SDS011;16845;48.670;9.000;2023-05-10T14:51:29;1.60;;;0.75;;
30000;SDS011;16845;48.670;9.000;2023-05-10T14:53:56;0.90;;;0.50;;
30000;SDS011;16845;48.670;9.000;2023-05-10T14:56:22;1.67;;;0.60;;
30000;SDS011;16845;48.670;9.000;2023-05-10T14:58:49;2.55;;;0.57;;
30000;SDS011;16845;48.670;9.000;2023-05-10T15:01:16;4.57;;;0.70;;
30000;SDS011;16845;48.670;9.000;2023-05-10T15:03:44;2.67;;;0.77;;
30000;SDS011;16845;48.670;9.000;2023-05-10T15:06:11;3.78;;;0.55;;
30000;SDS011;16845;48.670;9.000;2023-05-10T15:08:39;4.18;;;1.08;;
30000;SDS011;16845;48.670;9.000;2023-05-10T15:11:06;1.20;;;0.50;;
30000;SDS011;16845;48.670;9.000;2023-05-10T15:13:32;1.33;;;0.70;;
30000;SDS011;16845;48.670;9.000;2023-05-10T15:15:59;4.18;;;0.60;;
30000;SDS011;16845;48.670;9.000;2023-05-10T15:18:25;1.92;;;0.93;;
30000;SDS011;16845;48.670;9.000;2023-05-10T15:20:53;2.50;;;1.47;;
30000;SDS011;16845;48.670;9.000;2023-05-10T15:23:19;1.23;;;0.60;;